sensor_id;sensor_type;location;lat;lon;timestamp;pressure;altitude;pressure_sealevel;temperature;humidity
71465;BME280;59274;49.874;9.154;2023-08-06T00:02:03;99467.44;;;15.30;100.00
71465;BME280;59274;49.874;9.154;2023-08-06T00:04:28;99461.91;;;15.34;100.00
71465;BME280;59274;49.874;9.154;2023-08-06T00:06:54;99463.00;;;15.36;100.00
71465;BME280;59274;49.874;9.154;2023-08-06T00:09:19;99457.91;;;15.38;100.00
71465;BME280;59274;49.874;9.154;2023-08-06T00:11:45;99456.00;;;15.35;100.00
71465;BME280;59274;49.874;9.154;2023-08-06T00:14:12;99456.28;;;15.41;100.00
71465;BME280;59274;49.874;9.154;2023-08-06T00:16:42;99455.50;;;15.40;100.00
71465;BME280;59274;49.874;9.154;2023-08-06T00:19:07;99451.22;;;15.39;100.00
71465;BME280;59274;49.874;9.154;2023-08-06T00:21:33;99452.69;;;15.44;100.00
71465;BME280;59274;49.874;9.154;2023-08-06T00:23:58;99447.31;;;15.40;100.00
71465;BME280;59274;49.874;9.154;2023-08-06T00:26:24;99440.34;;;15.36;100.00
71465;BME280;59274;49.874;9.154;2023-08-06T00:28:49;99435.75;;;15.33;100.00
71465;BME280;59274;49.874;9.154;2023-08-06T00:31:15;99431.47;;;15.32;100.00
71465;BME280;59274;49.874;9.154;2023-08-06T00:33:40;99429.56;;;15.28;100.00
71465;BME280;59274;49.874;9.154;2023-08-06T00:36:06;99427.19;;;15.31;100.00
71465;BME280;59274;49.874;9.154;2023-08-06T00:38:31;99428.16;;;15.20;100.00
71465;BME280;59274;49.874;9.154;2023-08-06T00:40:56;99425.44;;;15.20;100.00
71465;BME280;59274;49.874;9.154;2023-08-06T00:43:22;99423.56;;;15.17;100.00
71465;BME280;59274;49.874;9.154;2023-08-06T00:45:47;99419.13;;;15.23;100.00
71465;BME280;59274;49.874;9.154;2023-08-06T00:48:13;99416.13;;;15.18;100.00
71465;BME280;59274;49.874;9.154;2023-08-06T00:50:39;99407.91;;;15.18;100.00
71465;BME280;59274;49.874;9.154;2023-08-06T00:53:05;99412.97;;;15.19;100.00
71465;BME280;59274;49.874;9.154;2023-08-06T00:55:30;99409.88;;;15.17;100.00
71465;BME280;59274;49.874;9.154;2023-08-06T00:57:56;99414.63;;;15.13;100.00
71465;BME280;59274;49.874;9.154;2023-08-06T01:00:22;99400.97;;;15.13;100.00
71465;BME280;59274;49.874;9.154;2023-08-06T01:02:49;99396.56;;;15.19;100.00
71465;BME280;59274;49.874;9.154;2023-08-06T01:05:14;99400.13;;;15.16;100.00
71465;BME280;59274;49.874;9.154;2023-08-06T01:13:43;99390.38;;;15.15;100.00
71465;BME280;59274;49.874;9.154;2023-08-06T01:16:15;99386.88;;;15.15;100.00
71465;BME280;59274;49.874;9.154;2023-08-06T01:18:41;99388.66;;;15.21;100.00
71465;BME280;59274;49.874;9.154;2023-08-06T01:21:08;99384.38;;;15.20;100.00
71465;BME280;59274;49.874;9.154;2023-08-06T01:23:34;99380.56;;;15.18;100.00
71465;BME280;59274;49.874;9.154;2023-08-06T01:26:14;99363.13;;;15.12;100.00
71465;BME280;59274;49.874;9.154;2023-08-06T01:31:31;99371.31;;;15.12;100.00
71465;BME280;59274;49.874;9.154;2023-08-06T01:33:58;99348.25;;;15.13;100.00
71465;BME280;59274;49.874;9.154;2023-08-06T01:36:25;99350.53;;;15.14;100.00
71465;BME280;59274;49.874;9.154;2023-08-06T01:38:55;99348.50;;;15.18;100.00
71465;BME280;59274;49.874;9.154;2023-08-06T01:41:20;99338.50;;;15.12;100.00
71465;BME280;59274;49.874;9.154;2023-08-06T01:43:46;99340.03;;;15.13;100.00
71465;BME280;59274;49.874;9.154;2023-08-06T01:46:11;99353.44;;;15.07;100.00
71465;BME280;59274;49.874;9.154;2023-08-06T01:48:36;99345.31;;;15.04;100.00
71465;BME280;59274;49.874;9.154;2023-08-06T01:51:05;99341.81;;;15.03;100.00
71465;BME280;59274;49.874;9.154;2023-08-06T01:53:31;99357.44;;;15.03;100.00
71465;BME280;59274;49.874;9.154;2023-08-06T01:55:57;99351.19;;;15.02;100.00
71465;BME280;59274;49.874;9.154;2023-08-06T01:58:22;99351.03;;;15.09;100.00
71465;BME280;59274;49.874;9.154;2023-08-06T02:00:48;99349.16;;;15.06;100.00
71465;BME280;59274;49.874;9.154;2023-08-06T02:03:13;99341.28;;;15.08;100.00
71465;BME280;59274;49.874;9.154;2023-08-06T02:05:39;99334.72;;;15.06;100.00
71465;BME280;59274;49.874;9.154;2023-08-06T02:08:05;99328.75;;;15.11;100.00
71465;BME280;59274;49.874;9.154;2023-08-06T02:10:30;99327.78;;;15.01;100.00
71465;BME280;59274;49.874;9.154;2023-08-06T02:12:56;99321.63;;;14.97;100.00
71465;BME280;59274;49.874;9.154;2023-08-06T02:15:21;99314.63;;;14.96;100.00
71465;BME280;59274;49.874;9.154;2023-08-06T02:17:46;99313.84;;;14.96;100.00
71465;BME280;59274;49.874;9.154;2023-08-06T02:20:12;99319.38;;;14.92;100.00
71465;BME280;59274;49.874;9.154;2023-08-06T02:22:37;99319.72;;;14.94;100.00
71465;BME280;59274;49.874;9.154;2023-08-06T02:25:03;99319.72;;;14.94;100.00
71465;BME280;59274;49.874;9.154;2023-08-06T02:27:28;99313.00;;;14.99;100.00
71465;BME280;59274;49.874;9.154;2023-08-06T02:29:54;99309.81;;;15.00;100.00
71465;BME280;59274;49.874;9.154;2023-08-06T02:32:19;99313.34;;;15.01;100.00
71465;BME280;59274;49.874;9.154;2023-08-06T02:34:44;99309.50;;;14.98;100.00
71465;BME280;59274;49.874;9.154;2023-08-06T02:37:10;99311.31;;;15.05;100.00
71465;BME280;59274;49.874;9.154;2023-08-06T02:39:38;99300.38;;;15.05;100.00
71465;BME280;59274;49.874;9.154;2023-08-06T02:42:06;99299.19;;;15.06;100.00
71465;BME280;59274;49.874;9.154;2023-08-06T02:44:33;99292.59;;;15.03;100.00
71465;BME280;59274;49.874;9.154;2023-08-06T02:46:59;99287.63;;;14.98;100.00
71465;BME280;59274;49.874;9.154;2023-08-06T02:49:24;99292.66;;;15.00;100.00
71465;BME280;59274;49.874;9.154;2023-08-06T02:51:49;99285.66;;;14.99;100.00
71465;BME280;59274;49.874;9.154;2023-08-06T02:54:15;99297.34;;;14.99;100.00
71465;BME280;59274;49.874;9.154;2023-08-06T02:56:43;99297.34;;;14.99;100.00
71465;BME280;59274;49.874;9.154;2023-08-06T02:59:09;99290.00;;;14.96;100.00
71465;BME280;59274;49.874;9.154;2023-08-06T03:01:35;99293.88;;;14.99;100.00
71465;BME280;59274;49.874;9.154;2023-08-06T03:04:01;99290.78;;;14.97;100.00
71465;BME280;59274;49.874;9.154;2023-08-06T03:06:27;99281.81;;;14.96;100.00
71465;BME280;59274;49.874;9.154;2023-08-06T03:08:52;99279.66;;;14.87;100.00
71465;BME280;59274;49.874;9.154;2023-08-06T03:11:17;99269.47;;;14.88;100.00
71465;BME280;59274;49.874;9.154;2023-08-06T03:13:43;99271.28;;;14.95;100.00
71465;BME280;59274;49.874;9.154;2023-08-06T03:16:08;99256.41;;;14.96;100.00
71465;BME280;59274;49.874;9.154;2023-08-06T03:18:34;99256.41;;;14.96;100.00
71465;BME280;59274;49.874;9.154;2023-08-06T03:20:59;99260.69;;;14.97;100.00
71465;BME280;59274;49.874;9.154;2023-08-06T03:23:24;99260.97;;;15.02;100.00
71465;BME280;59274;49.874;9.154;2023-08-06T03:25:50;99252.41;;;15.00;100.00
71465;BME280;59274;49.874;9.154;2023-08-06T03:28:15;99255.13;;;15.00;100.00
71465;BME280;59274;49.874;9.154;2023-08-06T03:30:41;99256.84;;;14.94;100.00
71465;BME280;59274;49.874;9.154;2023-08-06T03:33:07;99257.72;;;14.91;100.00
71465;BME280;59274;49.874;9.154;2023-08-06T03:35:32;99259.72;;;14.87;100.00
71465;BME280;59274;49.874;9.154;2023-08-06T03:37:57;99252.41;;;14.84;100.00
71465;BME280;59274;49.874;9.154;2023-08-06T03:40:23;99251.19;;;14.85;100.00
71465;BME280;59274;49.874;9.154;2023-08-06T03:42:48;99252.66;;;14.89;100.00
71465;BME280;59274;49.874;9.154;2023-08-06T03:45:14;99251.03;;;14.92;100.00
71465;BME280;59274;49.874;9.154;2023-08-06T03:47:39;99258.47;;;14.92;100.00
71465;BME280;59274;49.874;9.154;2023-08-06T03:50:05;99256.06;;;14.94;100.00
71465;BME280;59274;49.874;9.154;2023-08-06T03:52:31;99247.38;;;14.99;100.00
71465;BME280;59274;49.874;9.154;2023-08-06T03:54:56;99248.31;;;15.08;100.00
71465;BME280;59274;49.874;9.154;2023-08-06T03:57:21;99246.28;;;15.12;100.00
71465;BME280;59274;49.874;9.154;2023-08-06T03:59:47;99243.78;;;15.18;100.00
71465;BME280;59274;49.874;9.154;2023-08-06T04:02:12;99246.19;;;15.16;100.00
71465;BME280;59274;49.874;9.154;2023-08-06T04:04:37;99242.06;;;15.24;100.00
71465;BME280;59274;49.874;9.154;2023-08-06T04:07:03;99235.94;;;15.20;100.00
71465;BME280;59274;49.874;9.154;2023-08-06T04:09:29;99240.28;;;15.17;100.00
71465;BME280;59274;49.874;9.154;2023-08-06T04:11:55;99245.16;;;15.10;100.00
71465;BME280;59274;49.874;9.154;2023-08-06T04:14:21;99247.03;;;15.13;100.00
71465;BME280;59274;49.874;9.154;2023-08-06T04:16:46;99251.56;;;15.19;100.00
71465;BME280;59274;49.874;9.154;2023-08-06T04:19:12;99244.63;;;15.15;100.00
71465;BME280;59274;49.874;9.154;2023-08-06T04:21:37;99243.09;;;15.14;100.00
71465;BME280;59274;49.874;9.154;2023-08-06T04:24:03;99241.22;;;15.11;100.00
71465;BME280;59274;49.874;9.154;2023-08-06T04:26:28;99249.44;;;15.11;100.00
71465;BME280;59274;49.874;9.154;2023-08-06T04:28:54;99244.38;;;15.09;100.00
71465;BME280;59274;49.874;9.154;2023-08-06T04:31:19;99246.59;;;15.14;100.00
71465;BME280;59274;49.874;9.154;2023-08-06T04:33:45;99236.78;;;15.17;100.00
71465;BME280;59274;49.874;9.154;2023-08-06T04:36:11;99230.19;;;15.14;100.00
71465;BME280;59274;49.874;9.154;2023-08-06T04:38:37;99227.38;;;15.18;100.00
71465;BME280;59274;49.874;9.154;2023-08-06T04:41:03;99228.91;;;15.19;100.00
71465;BME280;59274;49.874;9.154;2023-08-06T04:43:29;99214.06;;;15.20;100.00
71465;BME280;59274;49.874;9.154;2023-08-06T04:45:54;99217.88;;;15.22;100.00
71465;BME280;59274;49.874;9.154;2023-08-06T04:48:21;99228.81;;;15.22;100.00
71465;BME280;59274;49.874;9.154;2023-08-06T04:50:47;99228.31;;;15.27;100.00
71465;BME280;59274;49.874;9.154;2023-08-06T04:53:13;99220.63;;;15.39;100.00
71465;BME280;59274;49.874;9.154;2023-08-06T04:55:38;99225.38;;;15.51;100.00
71465;BME280;59274;49.874;9.154;2023-08-06T04:58:04;99225.81;;;15.65;100.00
71465;BME280;59274;49.874;9.154;2023-08-06T05:00:30;99232.81;;;15.66;100.00
71465;BME280;59274;49.874;9.154;2023-08-06T05:02:55;99227.16;;;15.74;100.00
71465;BME280;59274;49.874;9.154;2023-08-06T05:05:21;99232.28;;;15.72;100.00
71465;BME280;59274;49.874;9.154;2023-08-06T05:07:49;99224.09;;;15.72;100.00
71465;BME280;59274;49.874;9.154;2023-08-06T05:10:16;99225.19;;;15.74;100.00
71465;BME280;59274;49.874;9.154;2023-08-06T05:12:41;99228.91;;;15.68;100.00
71465;BME280;59274;49.874;9.154;2023-08-06T05:15:07;99227.78;;;15.65;100.00
71465;BME280;59274;49.874;9.154;2023-08-06T05:17:32;99230.44;;;15.69;100.00
71465;BME280;59274;49.874;9.154;2023-08-06T05:19:59;99230.31;;;15.72;100.00
71465;BME280;59274;49.874;9.154;2023-08-06T05:22:24;99239.31;;;15.73;100.00
71465;BME280;59274;49.874;9.154;2023-08-06T05:24:50;99243.69;;;15.70;100.00
71465;BME280;59274;49.874;9.154;2023-08-06T05:27:15;99240.69;;;15.64;100.00
71465;BME280;59274;49.874;9.154;2023-08-06T05:29:41;99246.28;;;15.61;100.00
71465;BME280;59274;49.874;9.154;2023-08-06T05:32:06;99246.94;;;15.65;100.00
71465;BME280;59274;49.874;9.154;2023-08-06T05:34:32;99241.31;;;15.56;100.00
71465;BME280;59274;49.874;9.154;2023-08-06T05:36:57;99249.78;;;15.61;100.00
71465;BME280;59274;49.874;9.154;2023-08-06T05:39:23;99244.19;;;15.49;100.00
71465;BME280;59274;49.874;9.154;2023-08-06T05:41:48;99248.56;;;15.46;100.00
71465;BME280;59274;49.874;9.154;2023-08-06T05:44:15;99251.06;;;15.57;100.00
71465;BME280;59274;49.874;9.154;2023-08-06T05:46:40;99249.19;;;15.54;100.00
71465;BME280;59274;49.874;9.154;2023-08-06T05:49:06;99237.06;;;15.55;100.00
71465;BME280;59274;49.874;9.154;2023-08-06T05:51:31;99237.78;;;15.72;100.00
71465;BME280;59274;49.874;9.154;2023-08-06T05:53:57;99251.72;;;15.77;100.00
71465;BME280;59274;49.874;9.154;2023-08-06T05:56:22;99250.69;;;15.71;100.00
71465;BME280;59274;49.874;9.154;2023-08-06T05:58:48;99248.53;;;15.79;100.00
71465;BME280;59274;49.874;9.154;2023-08-06T06:01:15;99249.72;;;15.78;100.00
71465;BME280;59274;49.874;9.154;2023-08-06T06:03:41;99254.00;;;15.79;100.00
71465;BME280;59274;49.874;9.154;2023-08-06T06:06:06;99255.56;;;15.80;100.00
71465;BME280;59274;49.874;9.154;2023-08-06T06:08:32;99252.97;;;15.89;100.00
71465;BME280;59274;49.874;9.154;2023-08-06T06:10:59;99256.13;;;15.87;100.00
71465;BME280;59274;49.874;9.154;2023-08-06T06:13:24;99263.16;;;15.88;100.00
71465;BME280;59274;49.874;9.154;2023-08-06T06:15:49;99259.75;;;15.84;100.00
71465;BME280;59274;49.874;9.154;2023-08-06T06:18:15;99255.47;;;15.83;100.00
71465;BME280;59274;49.874;9.154;2023-08-06T06:20:40;99262.16;;;15.82;100.00
71465;BME280;59274;49.874;9.154;2023-08-06T06:23:05;99260.47;;;16.01;100.00
71465;BME280;59274;49.874;9.154;2023-08-06T06:25:31;99265.31;;;16.10;100.00
71465;BME280;59274;49.874;9.154;2023-08-06T06:27:56;99266.91;;;15.94;100.00
71465;BME280;59274;49.874;9.154;2023-08-06T06:30:23;99267.19;;;15.84;100.00
71465;BME280;59274;49.874;9.154;2023-08-06T06:32:49;99266.09;;;15.81;100.00
71465;BME280;59274;49.874;9.154;2023-08-06T06:35:14;99271.94;;;15.96;100.00
71465;BME280;59274;49.874;9.154;2023-08-06T06:37:40;99273.38;;;16.00;100.00
71465;BME280;59274;49.874;9.154;2023-08-06T06:40:06;99269.25;;;16.09;100.00
71465;BME280;59274;49.874;9.154;2023-08-06T06:42:31;99266.50;;;16.09;100.00
71465;BME280;59274;49.874;9.154;2023-08-06T06:44:56;99276.84;;;16.17;100.00
71465;BME280;59274;49.874;9.154;2023-08-06T06:47:22;99269.25;;;16.09;100.00
71465;BME280;59274;49.874;9.154;2023-08-06T06:49:47;99266.13;;;15.94;100.00
71465;BME280;59274;49.874;9.154;2023-08-06T06:52:13;99277.81;;;15.82;100.00
71465;BME280;59274;49.874;9.154;2023-08-06T06:54:38;99275.06;;;15.82;100.00
71465;BME280;59274;49.874;9.154;2023-08-06T06:57:04;99274.81;;;15.76;100.00
71465;BME280;59274;49.874;9.154;2023-08-06T06:59:30;99268.41;;;15.83;100.00
71465;BME280;59274;49.874;9.154;2023-08-06T07:01:55;99275.44;;;15.68;100.00
71465;BME280;59274;49.874;9.154;2023-08-06T07:04:20;99270.38;;;15.66;100.00
71465;BME280;59274;49.874;9.154;2023-08-06T07:06:47;99268.16;;;15.61;100.00
71465;BME280;59274;49.874;9.154;2023-08-06T07:09:12;99269.59;;;15.65;100.00
71465;BME280;59274;49.874;9.154;2023-08-06T07:11:37;99269.66;;;15.78;100.00
71465;BME280;59274;49.874;9.154;2023-08-06T07:14:03;99269.28;;;15.92;100.00
71465;BME280;59274;49.874;9.154;2023-08-06T07:16:28;99267.28;;;16.09;100.00
71465;BME280;59274;49.874;9.154;2023-08-06T07:18:54;99268.66;;;16.30;100.00
71465;BME280;59274;49.874;9.154;2023-08-06T07:21:20;99273.09;;;16.40;100.00
71465;BME280;59274;49.874;9.154;2023-08-06T07:23:45;99278.66;;;16.36;100.00
71465;BME280;59274;49.874;9.154;2023-08-06T07:26:11;99281.63;;;16.42;100.00
71465;BME280;59274;49.874;9.154;2023-08-06T07:28:37;99269.44;;;16.30;100.00
71465;BME280;59274;49.874;9.154;2023-08-06T07:31:03;99270.47;;;16.08;100.00
71465;BME280;59274;49.874;9.154;2023-08-06T07:33:28;99267.28;;;16.38;100.00
71465;BME280;59274;49.874;9.154;2023-08-06T07:35:54;99263.78;;;16.50;100.00
71465;BME280;59274;49.874;9.154;2023-08-06T07:38:19;99273.75;;;16.44;100.00
71465;BME280;59274;49.874;9.154;2023-08-06T07:40:45;99266.06;;;16.39;100.00
71465;BME280;59274;49.874;9.154;2023-08-06T07:43:11;99270.28;;;16.27;100.00
71465;BME280;59274;49.874;9.154;2023-08-06T07:45:37;99276.31;;;16.22;100.00
71465;BME280;59274;49.874;9.154;2023-08-06T07:48:03;99283.69;;;16.25;100.00
71465;BME280;59274;49.874;9.154;2023-08-06T07:50:29;99274.06;;;16.33;100.00
71465;BME280;59274;49.874;9.154;2023-08-06T07:52:54;99277.22;;;16.32;100.00
71465;BME280;59274;49.874;9.154;2023-08-06T07:55:20;99275.88;;;16.24;100.00
71465;BME280;59274;49.874;9.154;2023-08-06T07:57:46;99276.75;;;16.21;100.00
71465;BME280;59274;49.874;9.154;2023-08-06T08:00:11;99269.78;;;16.32;100.00
71465;BME280;59274;49.874;9.154;2023-08-06T08:02:37;99277.50;;;16.21;100.00
71465;BME280;59274;49.874;9.154;2023-08-06T08:05:03;99276.44;;;16.19;100.00
71465;BME280;59274;49.874;9.154;2023-08-06T08:07:28;99267.09;;;16.16;100.00
71465;BME280;59274;49.874;9.154;2023-08-06T08:09:56;99277.09;;;16.23;100.00
71465;BME280;59274;49.874;9.154;2023-08-06T08:12:21;99277.19;;;16.19;100.00
71465;BME280;59274;49.874;9.154;2023-08-06T08:14:47;99271.47;;;16.14;100.00
71465;BME280;59274;49.874;9.154;2023-08-06T08:17:12;99266.47;;;16.25;100.00
71465;BME280;59274;49.874;9.154;2023-08-06T08:19:38;99266.19;;;16.06;100.00
71465;BME280;59274;49.874;9.154;2023-08-06T08:22:03;99274.53;;;16.16;100.00
71465;BME280;59274;49.874;9.154;2023-08-06T08:24:29;99268.84;;;16.10;100.00
71465;BME280;59274;49.874;9.154;2023-08-06T08:26:56;99267.22;;;16.13;100.00
71465;BME280;59274;49.874;9.154;2023-08-06T08:29:22;99273.34;;;16.17;100.00
71465;BME280;59274;49.874;9.154;2023-08-06T08:31:48;99268.44;;;16.24;100.00
71465;BME280;59274;49.874;9.154;2023-08-06T08:34:16;99266.63;;;16.34;100.00
71465;BME280;59274;49.874;9.154;2023-08-06T08:36:42;99264.47;;;16.54;100.00
71465;BME280;59274;49.874;9.154;2023-08-06T08:39:08;99267.72;;;16.49;100.00
71465;BME280;59274;49.874;9.154;2023-08-06T08:41:36;99267.28;;;16.38;100.00
71465;BME280;59274;49.874;9.154;2023-08-06T08:44:02;99258.25;;;16.66;100.00
71465;BME280;59274;49.874;9.154;2023-08-06T08:46:30;99251.69;;;16.89;100.00
71465;BME280;59274;49.874;9.154;2023-08-06T08:48:58;99251.13;;;17.07;100.00
71465;BME280;59274;49.874;9.154;2023-08-06T08:51:27;99245.38;;;17.39;100.00
71465;BME280;59274;49.874;9.154;2023-08-06T08:53:53;99251.25;;;17.76;100.00
71465;BME280;59274;49.874;9.154;2023-08-06T08:56:22;99243.19;;;17.81;100.00
71465;BME280;59274;49.874;9.154;2023-08-06T08:58:48;99248.16;;;17.74;100.00
71465;BME280;59274;49.874;9.154;2023-08-06T09:01:15;99242.81;;;17.92;100.00
71465;BME280;59274;49.874;9.154;2023-08-06T09:03:41;99242.75;;;17.83;100.00
71465;BME280;59274;49.874;9.154;2023-08-06T09:06:09;99246.38;;;17.80;100.00
71465;BME280;59274;49.874;9.154;2023-08-06T09:08:40;99248.03;;;17.77;100.00
71465;BME280;59274;49.874;9.154;2023-08-06T09:11:09;99247.06;;;17.71;100.00
71465;BME280;59274;49.874;9.154;2023-08-06T09:13:36;99252.22;;;17.69;100.00
71465;BME280;59274;49.874;9.154;2023-08-06T09:16:14;99246.97;;;17.75;100.00
71465;BME280;59274;49.874;9.154;2023-08-06T09:19:09;99243.59;;;17.92;100.00
71465;BME280;59274;49.874;9.154;2023-08-06T09:21:39;99244.75;;;17.70;100.00
71465;BME280;59274;49.874;9.154;2023-08-06T09:24:11;99250.28;;;17.91;100.00
71465;BME280;59274;49.874;9.154;2023-08-06T09:26:38;99245.56;;;17.92;100.00
71465;BME280;59274;49.874;9.154;2023-08-06T09:29:08;99243.59;;;18.14;100.00
71465;BME280;59274;49.874;9.154;2023-08-06T09:34:16;99245.25;;;18.33;100.00
71465;BME280;59274;49.874;9.154;2023-08-06T09:36:43;99243.84;;;18.29;100.00
71465;BME280;59274;49.874;9.154;2023-08-06T09:39:15;99243.31;;;18.65;100.00
71465;BME280;59274;49.874;9.154;2023-08-06T09:41:42;99257.34;;;18.89;100.00
71465;BME280;59274;49.874;9.154;2023-08-06T09:44:18;99252.34;;;18.96;100.00
71465;BME280;59274;49.874;9.154;2023-08-06T09:46:54;99250.91;;;18.92;100.00
71465;BME280;59274;49.874;9.154;2023-08-06T09:49:24;99236.44;;;19.00;100.00
71465;BME280;59274;49.874;9.154;2023-08-06T09:51:51;99247.88;;;18.90;100.00
71465;BME280;59274;49.874;9.154;2023-08-06T09:54:17;99246.63;;;18.82;100.00
71465;BME280;59274;49.874;9.154;2023-08-06T09:56:44;99243.94;;;18.69;100.00
71465;BME280;59274;49.874;9.154;2023-08-06T09:59:09;99238.09;;;18.58;100.00
71465;BME280;59274;49.874;9.154;2023-08-06T10:01:37;99238.09;;;18.58;100.00
71465;BME280;59274;49.874;9.154;2023-08-06T10:04:04;99233.41;;;18.46;100.00
71465;BME280;59274;49.874;9.154;2023-08-06T10:06:31;99231.97;;;18.32;100.00
71465;BME280;59274;49.874;9.154;2023-08-06T10:08:57;99230.34;;;18.44;100.00
71465;BME280;59274;49.874;9.154;2023-08-06T10:11:24;99238.75;;;18.40;100.00
71465;BME280;59274;49.874;9.154;2023-08-06T10:13:55;99232.16;;;18.59;100.00
71465;BME280;59274;49.874;9.154;2023-08-06T10:16:22;99224.38;;;18.67;100.00
71465;BME280;59274;49.874;9.154;2023-08-06T10:18:49;99223.84;;;18.81;100.00
71465;BME280;59274;49.874;9.154;2023-08-06T10:21:16;99224.31;;;18.89;100.00
71465;BME280;59274;49.874;9.154;2023-08-06T10:23:56;99223.06;;;18.81;100.00
71465;BME280;59274;49.874;9.154;2023-08-06T10:26:51;99224.25;;;18.49;100.00
71465;BME280;59274;49.874;9.154;2023-08-06T10:29:37;99217.75;;;18.33;100.00
71465;BME280;59274;49.874;9.154;2023-08-06T10:32:04;99229.91;;;18.23;100.00
71465;BME280;59274;49.874;9.154;2023-08-06T10:37:20;99227.75;;;18.18;100.00
71465;BME280;59274;49.874;9.154;2023-08-06T10:39:51;99226.03;;;17.90;100.00
71465;BME280;59274;49.874;9.154;2023-08-06T10:42:27;99218.41;;;17.72;100.00
71465;BME280;59274;49.874;9.154;2023-08-06T10:45:15;99226.81;;;17.78;100.00
71465;BME280;59274;49.874;9.154;2023-08-06T10:47:42;99219.09;;;17.85;100.00
71465;BME280;59274;49.874;9.154;2023-08-06T10:50:13;99219.97;;;18.17;100.00
71465;BME280;59274;49.874;9.154;2023-08-06T10:52:41;99212.63;;;18.45;100.00
71465;BME280;59274;49.874;9.154;2023-08-06T10:55:07;99215.44;;;18.54;100.00
71465;BME280;59274;49.874;9.154;2023-08-06T10:57:34;99211.00;;;18.87;100.00
71465;BME280;59274;49.874;9.154;2023-08-06T10:59:59;99207.88;;;19.16;100.00
71465;BME280;59274;49.874;9.154;2023-08-06T11:02:25;99206.44;;;19.70;100.00
71465;BME280;59274;49.874;9.154;2023-08-06T11:04:54;99204.31;;;19.74;100.00
71465;BME280;59274;49.874;9.154;2023-08-06T11:07:20;99215.47;;;19.70;100.00
71465;BME280;59274;49.874;9.154;2023-08-06T11:09:50;99210.56;;;19.56;100.00
71465;BME280;59274;49.874;9.154;2023-08-06T11:12:18;99209.91;;;19.43;100.00
71465;BME280;59274;49.874;9.154;2023-08-06T11:14:49;99221.06;;;19.30;100.00
71465;BME280;59274;49.874;9.154;2023-08-06T11:17:15;99221.50;;;19.10;100.00
71465;BME280;59274;49.874;9.154;2023-08-06T11:19:41;99229.81;;;18.89;100.00
71465;BME280;59274;49.874;9.154;2023-08-06T11:22:06;99218.13;;;18.66;100.00
71465;BME280;59274;49.874;9.154;2023-08-06T11:24:32;99222.72;;;18.48;100.00
71465;BME280;59274;49.874;9.154;2023-08-06T11:26:57;99225.66;;;18.84;100.00
71465;BME280;59274;49.874;9.154;2023-08-06T11:29:23;99223.84;;;18.81;100.00
71465;BME280;59274;49.874;9.154;2023-08-06T11:31:49;99228.94;;;18.61;100.00
71465;BME280;59274;49.874;9.154;2023-08-06T11:34:15;99223.03;;;17.97;100.00
71465;BME280;59274;49.874;9.154;2023-08-06T11:36:41;99230.22;;;17.47;100.00
71465;BME280;59274;49.874;9.154;2023-08-06T11:39:07;99225.31;;;17.30;100.00
71465;BME280;59274;49.874;9.154;2023-08-06T11:41:36;99222.75;;;17.35;100.00
71465;BME280;59274;49.874;9.154;2023-08-06T11:44:03;99225.75;;;17.15;100.00
71465;BME280;59274;49.874;9.154;2023-08-06T11:46:29;99225.88;;;16.99;100.00
71465;BME280;59274;49.874;9.154;2023-08-06T11:48:55;99215.66;;;17.12;100.00
71465;BME280;59274;49.874;9.154;2023-08-06T11:51:27;99223.88;;;17.25;100.00
71465;BME280;59274;49.874;9.154;2023-08-06T11:53:57;99228.31;;;17.57;100.00
71465;BME280;59274;49.874;9.154;2023-08-06T11:56:24;99216.03;;;18.27;100.00
71465;BME280;59274;49.874;9.154;2023-08-06T11:58:49;99222.22;;;19.02;100.00
71465;BME280;59274;49.874;9.154;2023-08-06T12:01:15;99229.19;;;19.25;100.00
71465;BME280;59274;49.874;9.154;2023-08-06T12:03:41;99239.31;;;18.57;100.00
71465;BME280;59274;49.874;9.154;2023-08-06T12:06:06;99236.28;;;17.77;100.00
71465;BME280;59274;49.874;9.154;2023-08-06T12:08:35;99245.63;;;17.32;100.00
71465;BME280;59274;49.874;9.154;2023-08-06T12:11:00;99243.25;;;16.83;100.00
71465;BME280;59274;49.874;9.154;2023-08-06T12:13:26;99268.81;;;16.39;100.00
71465;BME280;59274;49.874;9.154;2023-08-06T12:15:53;99266.06;;;15.97;100.00
71465;BME280;59274;49.874;9.154;2023-08-06T12:18:19;99269.16;;;15.83;100.00
71465;BME280;59274;49.874;9.154;2023-08-06T12:20:45;99254.63;;;15.99;100.00
71465;BME280;59274;49.874;9.154;2023-08-06T12:23:10;99270.34;;;15.82;100.00
71465;BME280;59274;49.874;9.154;2023-08-06T12:25:40;99274.25;;;15.69;100.00
71465;BME280;59274;49.874;9.154;2023-08-06T12:28:05;99278.25;;;15.64;100.00
71465;BME280;59274;49.874;9.154;2023-08-06T12:30:32;99280.22;;;15.63;100.00
71465;BME280;59274;49.874;9.154;2023-08-06T12:32:57;99310.50;;;15.73;100.00
71465;BME280;59274;49.874;9.154;2023-08-06T12:35:23;99301.59;;;16.14;100.00
71465;BME280;59274;49.874;9.154;2023-08-06T12:37:48;99317.00;;;16.24;100.00
71465;BME280;59274;49.874;9.154;2023-08-06T12:40:13;99329.94;;;16.07;100.00
71465;BME280;59274;49.874;9.154;2023-08-06T12:42:39;99313.63;;;16.03;100.00
71465;BME280;59274;49.874;9.154;2023-08-06T12:45:05;99317.38;;;16.10;100.00
71465;BME280;59274;49.874;9.154;2023-08-06T12:47:30;99341.31;;;16.22;100.00
71465;BME280;59274;49.874;9.154;2023-08-06T12:49:56;99338.59;;;16.34;100.00
71465;BME280;59274;49.874;9.154;2023-08-06T12:52:21;99346.47;;;16.20;100.00
71465;BME280;59274;49.874;9.154;2023-08-06T12:54:47;99353.59;;;16.01;100.00
71465;BME280;59274;49.874;9.154;2023-08-06T12:57:13;99347.94;;;15.92;100.00
71465;BME280;59274;49.874;9.154;2023-08-06T12:59:38;99356.31;;;16.01;100.00
71465;BME280;59274;49.874;9.154;2023-08-06T13:02:05;99364.06;;;15.90;100.00